Time;durP1;ratioP1;P1;durP2;ratioP2;P2;SDS_P1;SDS_P2;PMS_P1;PMS_P2;Temp;Humidity;BMP_temperature;BMP_pressure;BME280_temperature;BME280_humidity;BME280_pressure;Samples;Min_cycle;Max_cycle;Signal;HPM_P1;HPM_P2
2024/04/26 00:00:43;;;;;;;5.10;2.67;;;;;;;;;;5541569;26;19985;-47
2024/04/26 00:03:11;;;;;;;4.82;2.63;;;;;;;;;;5541582;26;19981;-42
2024/04/26 00:05:38;;;;;;;8.45;2.25;;;;;;;;;;5541392;26;20000;-45
2024/04/26 00:08:04;;;;;;;8.38;2.50;;;;;;;;;;5541683;26;20006;-47
2024/04/26 00:10:31;;;;;;;4.65;1.90;;;;;;;;;;5541337;26;20094;-44
2024/04/26 00:12:58;;;;;;;4.25;2.03;;;;;;;;;;5541600;26;20143;-50
2024/04/26 00:15:24;;;;;;;4.43;1.83;;;;;;;;;;5541540;26;20001;-47
2024/04/26 00:17:51;;;;;;;4.20;1.50;;;;;;;;;;5541768;26;19988;-46
2024/04/26 00:20:17;;;;;;;3.58;1.63;;;;;;;;;;5541000;26;19985;-47
2024/04/26 00:22:44;;;;;;;3.80;2.05;;;;;;;;;;5541369;26;19993;-47
2024/04/26 00:25:11;;;;;;;5.07;3.45;;;;;;;;;;5541169;26;20014;-46
2024/04/26 00:27:38;;;;;;;5.03;3.00;;;;;;;;;;5540979;26;19985;-44
2024/04/26 00:30:05;;;;;;;3.95;2.10;;;;;;;;;;5541328;26;20075;-44
2024/04/26 00:32:31;;;;;;;5.30;2.33;;;;;;;;;;5541667;26;20038;-47
2024/04/26 00:34:58;;;;;;;6.93;2.42;;;;;;;;;;5541240;25;19989;-47
2024/04/26 00:37:25;;;;;;;4.85;2.42;;;;;;;;;;5541751;26;19985;-51
2024/04/26 00:39:51;;;;;;;6.95;2.58;;;;;;;;;;5541134;26;19996;-46
2024/04/26 00:42:18;;;;;;;4.32;2.45;;;;;;;;;;5540994;26;19985;-45
2024/04/26 00:44:44;;;;;;;5.05;2.72;;;;;;;;;;5541346;26;19986;-50
2024/04/26 00:47:11;;;;;;;6.70;2.85;;;;;;;;;;5540928;26;20007;-46
2024/04/26 00:49:38;;;;;;;4.75;2.30;;;;;;;;;;5541316;26;20001;-48
2024/04/26 00:52:05;;;;;;;8.75;2.35;;;;;;;;;;5541262;26;20008;-47
2024/04/26 00:54:31;;;;;;;8.75;2.50;;;;;;;;;;5540889;26;20091;-43
2024/04/26 00:56:59;;;;;;;8.88;2.70;;;;;;;;;;5540897;26;19997;-46
2024/04/26 00:59:30;;;;;;;8.70;2.55;;;;;;;;;;5541336;26;20237;-44
2024/04/26 01:01:56;;;;;;;6.90;2.97;;;;;;;;;;5540483;26;19992;-49
2024/04/26 01:04:24;;;;;;;8.13;3.35;;;;;;;;;;5540264;26;20210;-42
2024/04/26 01:06:50;;;;;;;15.18;3.65;;;;;;;;;;5540839;26;19997;-43
2024/04/26 01:09:17;;;;;;;14.45;3.80;;;;;;;;;;5540501;26;19986;-45
2024/04/26 01:11:43;;;;;;;13.48;3.55;;;;;;;;;;5541011;26;19992;-42
2024/04/26 01:14:10;;;;;;;8.88;3.22;;;;;;;;;;5541103;26;19989;-44
2024/04/26 01:16:37;;;;;;;8.63;3.58;;;;;;;;;;5541182;26;19996;-43
2024/04/26 01:19:04;;;;;;;8.32;3.63;;;;;;;;;;5540680;26;19997;-44
2024/04/26 01:21:32;;;;;;;10.57;4.30;;;;;;;;;;5540325;26;20030;-46
2024/04/26 01:24:01;;;;;;;12.25;4.75;;;;;;;;;;5540373;26;20011;-44
2024/04/26 01:26:28;;;;;;;14.90;4.45;;;;;;;;;;5540233;26;19989;-45
2024/04/26 01:28:55;;;;;;;10.57;3.75;;;;;;;;;;5540654;26;19985;-42
2024/04/26 01:31:21;;;;;;;9.40;3.35;;;;;;;;;;5540529;26;19989;-46
2024/04/26 01:33:48;;;;;;;9.13;3.03;;;;;;;;;;5527478;26;19990;-52
2024/04/26 01:36:15;;;;;;;5.32;2.85;;;;;;;;;;5546589;25;20119;-46
2024/04/26 01:38:42;;;;;;;11.35;3.17;;;;;;;;;;5554461;25;19988;-45
2024/04/26 01:41:08;;;;;;;7.93;2.80;;;;;;;;;;5548760;25;20017;-50
2024/04/26 01:43:35;;;;;;;6.20;2.78;;;;;;;;;;5512043;26;19990;-45
2024/04/26 01:46:02;;;;;;;5.05;2.75;;;;;;;;;;5539749;26;20008;-46
2024/04/26 01:48:28;;;;;;;5.72;3.15;;;;;;;;;;5539809;25;20001;-48
2024/04/26 01:50:55;;;;;;;45.53;41.13;;;;;;;;;;5556993;25;19996;-49
2024/04/26 01:53:22;;;;;;;7.85;5.25;;;;;;;;;;5544302;25;19992;-49
2024/04/26 01:55:48;;;;;;;6.80;4.20;;;;;;;;;;5539989;25;19993;-52
2024/04/26 01:58:15;;;;;;;9.48;3.47;;;;;;;;;;5522995;26;20005;-45
2024/04/26 02:00:41;;;;;;;9.88;4.35;;;;;;;;;;5504287;25;20252;-44
2024/04/26 02:03:08;;;;;;;5.93;3.33;;;;;;;;;;5538605;26;19996;-46
2024/04/26 02:05:35;;;;;;;14.43;3.38;;;;;;;;;;5545186;25;19997;-46
2024/04/26 02:08:01;;;;;;;7.40;3.28;;;;;;;;;;5539058;26;20001;-43
2024/04/26 02:10:28;;;;;;;8.32;3.40;;;;;;;;;;5499005;26;19995;-47
2024/04/26 02:12:54;;;;;;;6.78;3.15;;;;;;;;;;5543271;25;20045;-43
2024/04/26 02:15:21;;;;;;;8.10;3.53;;;;;;;;;;5539182;26;20194;-47
2024/04/26 02:17:47;;;;;;;63.13;38.53;;;;;;;;;;5538883;26;20049;-45
2024/04/26 02:20:14;;;;;;;121.13;24.50;;;;;;;;;;5539491;26;19993;-46
2024/04/26 02:22:40;;;;;;;27.50;9.88;;;;;;;;;;5541784;25;20005;-50
2024/04/26 02:25:08;;;;;;;16.38;7.07;;;;;;;;;;5539239;26;20000;-48
2024/04/26 02:27:34;;;;;;;10.25;5.95;;;;;;;;;;5545018;25;19998;-47
2024/04/26 02:30:01;;;;;;;11.95;5.03;;;;;;;;;;5537306;25;19997;-47
2024/04/26 02:32:28;;;;;;;10.48;4.60;;;;;;;;;;5538787;26;20005;-46
2024/04/26 02:34:54;;;;;;;9.60;4.13;;;;;;;;;;5522421;26;20009;-48
2024/04/26 02:37:21;;;;;;;8.10;4.43;;;;;;;;;;5538717;26;20015;-44
2024/04/26 02:39:47;;;;;;;8.60;3.78;;;;;;;;;;5538726;26;19990;-49
2024/04/26 02:42:14;;;;;;;7.82;3.42;;;;;;;;;;5538895;26;20014;-48
2024/04/26 02:44:41;;;;;;;6.03;3.40;;;;;;;;;;5549154;25;20210;-45
2024/04/26 02:47:07;;;;;;;7.95;3.67;;;;;;;;;;5557666;25;20193;-47
2024/04/26 02:49:34;;;;;;;9.05;3.78;;;;;;;;;;5539824;25;19993;-48
2024/04/26 02:52:00;;;;;;;13.93;3.85;;;;;;;;;;5538486;26;20013;-50
2024/04/26 02:54:27;;;;;;;8.07;3.60;;;;;;;;;;5538401;26;20116;-48
2024/04/26 02:56:54;;;;;;;9.80;3.85;;;;;;;;;;5538875;26;20214;-50
2024/04/26 02:59:21;;;;;;;8.05;3.72;;;;;;;;;;5539781;26;19986;-49
2024/04/26 03:01:48;;;;;;;9.27;4.32;;;;;;;;;;5532271;25;19989;-46
2024/04/26 03:04:14;;;;;;;6.97;3.55;;;;;;;;;;5513963;26;19982;-45
2024/04/26 03:06:42;;;;;;;7.97;4.05;;;;;;;;;;5505074;26;20043;-46
2024/04/26 03:09:09;;;;;;;10.95;3.60;;;;;;;;;;5505254;26;20095;-46
2024/04/26 03:11:35;;;;;;;8.05;4.03;;;;;;;;;;5505178;26;20043;-56
2024/04/26 03:14:03;;;;;;;8.13;4.40;;;;;;;;;;5505219;26;19982;-46
2024/04/26 03:16:29;;;;;;;9.38;4.10;;;;;;;;;;5505252;26;20035;-47
2024/04/26 03:18:56;;;;;;;10.27;4.75;;;;;;;;;;5505471;26;20032;-46
2024/04/26 03:21:23;;;;;;;11.70;4.20;;;;;;;;;;5504971;26;19991;-48
2024/04/26 03:23:49;;;;;;;12.25;4.53;;;;;;;;;;5505123;26;19985;-47
2024/04/26 03:26:19;;;;;;;11.68;4.10;;;;;;;;;;5505238;26;19986;-52
2024/04/26 03:28:46;;;;;;;12.27;4.47;;;;;;;;;;5525948;26;19989;-48
2024/04/26 03:31:20;;;;;;;10.18;4.32;;;;;;;;;;5504881;26;19993;-49
2024/04/26 03:33:46;;;;;;;8.32;4.70;;;;;;;;;;5506359;26;19989;-46
2024/04/26 03:36:13;;;;;;;12.18;4.50;;;;;;;;;;5520277;26;20001;-51
2024/04/26 03:38:40;;;;;;;11.25;4.70;;;;;;;;;;5541803;26;20191;-45
2024/04/26 03:41:06;;;;;;;11.93;4.32;;;;;;;;;;5541889;26;20243;-45
2024/04/26 03:43:33;;;;;;;8.75;4.13;;;;;;;;;;5541677;26;20026;-45
2024/04/26 03:46:00;;;;;;;11.98;4.75;;;;;;;;;;5541862;26;19985;-46
2024/04/26 03:48:26;;;;;;;9.48;4.55;;;;;;;;;;5541761;26;20034;-45
2024/04/26 03:50:53;;;;;;;10.02;4.65;;;;;;;;;;5541259;26;19990;-49
2024/04/26 03:53:19;;;;;;;8.52;4.60;;;;;;;;;;5541820;26;20009;-47
2024/04/26 03:55:46;;;;;;;13.82;4.13;;;;;;;;;;5541763;26;20038;-46
2024/04/26 03:58:13;;;;;;;13.02;5.05;;;;;;;;;;5541437;26;20011;-48
2024/04/26 04:00:39;;;;;;;9.48;4.53;;;;;;;;;;5541946;26;20263;-48
2024/04/26 04:03:06;;;;;;;10.80;4.97;;;;;;;;;;5541914;26;20222;-49
2024/04/26 04:05:32;;;;;;;14.38;5.28;;;;;;;;;;5541289;26;20195;-51
2024/04/26 04:07:59;;;;;;;9.45;4.53;;;;;;;;;;5541947;26;19981;-53
2024/04/26 04:10:27;;;;;;;13.40;5.00;;;;;;;;;;5520142;26;20098;-47
2024/04/26 04:12:53;;;;;;;14.02;5.10;;;;;;;;;;5504261;26;19997;-50
2024/04/26 04:15:20;;;;;;;13.10;5.20;;;;;;;;;;5530245;26;20210;-46
2024/04/26 04:17:46;;;;;;;13.43;5.57;;;;;;;;;;5541512;26;20001;-45
2024/04/26 04:20:13;;;;;;;10.20;5.03;;;;;;;;;;5541084;26;19985;-47
2024/04/26 04:22:40;;;;;;;10.02;5.05;;;;;;;;;;5541439;26;20111;-55
2024/04/26 04:25:06;;;;;;;11.63;4.95;;;;;;;;;;5541254;26;19989;-49
2024/04/26 04:27:33;;;;;;;12.20;5.43;;;;;;;;;;5540925;26;20045;-45
2024/04/26 04:30:00;;;;;;;11.20;5.00;;;;;;;;;;5541188;26;20037;-45
2024/04/26 04:32:26;;;;;;;13.65;5.40;;;;;;;;;;5541480;26;20013;-45
2024/04/26 04:34:53;;;;;;;11.18;5.18;;;;;;;;;;5540905;26;20099;-45
2024/04/26 04:37:20;;;;;;;11.48;5.75;;;;;;;;;;5541152;26;20040;-46
2024/04/26 04:39:46;;;;;;;10.65;5.25;;;;;;;;;;5540772;26;20082;-51
2024/04/26 04:42:13;;;;;;;12.25;5.57;;;;;;;;;;5540947;26;20045;-46
2024/04/26 04:44:40;;;;;;;14.02;5.18;;;;;;;;;;5540745;26;20021;-52
2024/04/26 04:47:06;;;;;;;12.93;5.00;;;;;;;;;;5541295;26;20051;-45
2024/04/26 04:49:34;;;;;;;9.88;5.00;;;;;;;;;;5541009;26;20001;-49
2024/04/26 04:52:01;;;;;;;11.63;4.75;;;;;;;;;;5541617;26;20047;-50
2024/04/26 04:54:27;;;;;;;10.13;5.10;;;;;;;;;;5540709;26;19989;-45
2024/04/26 04:56:54;;;;;;;9.30;4.35;;;;;;;;;;5541352;26;20202;-45
2024/04/26 04:59:20;;;;;;;12.40;5.00;;;;;;;;;;5541298;26;19992;-46
2024/04/26 05:01:47;;;;;;;11.45;4.93;;;;;;;;;;5541153;26;20042;-45
2024/04/26 05:04:14;;;;;;;11.50;5.30;;;;;;;;;;5540601;26;20001;-45
2024/04/26 05:06:40;;;;;;;11.95;4.75;;;;;;;;;;5540263;26;19981;-50
2024/04/26 05:09:07;;;;;;;9.65;4.32;;;;;;;;;;5540487;26;20143;-48
2024/04/26 05:11:34;;;;;;;8.65;4.22;;;;;;;;;;5540501;26;20090;-47
2024/04/26 05:14:00;;;;;;;10.55;4.35;;;;;;;;;;5540380;26;20140;-48
2024/04/26 05:16:27;;;;;;;11.82;4.53;;;;;;;;;;5540337;26;20103;-52
2024/04/26 05:18:53;;;;;;;9.23;3.95;;;;;;;;;;5541018;26;19997;-49
2024/04/26 05:21:20;;;;;;;11.80;4.60;;;;;;;;;;5539277;26;19985;-48
2024/04/26 05:23:46;;;;;;;10.52;4.88;;;;;;;;;;5540364;26;20006;-46
2024/04/26 05:26:13;;;;;;;9.80;4.63;;;;;;;;;;5540925;26;20190;-48
2024/04/26 05:28:40;;;;;;;14.45;5.15;;;;;;;;;;5540291;26;20037;-45
2024/04/26 05:31:07;;;;;;;11.10;4.93;;;;;;;;;;5540344;26;19981;-48
2024/04/26 05:33:33;;;;;;;15.00;5.20;;;;;;;;;;5540180;26;20042;-46
2024/04/26 05:36:00;;;;;;;11.02;5.30;;;;;;;;;;5540621;26;20079;-55
2024/04/26 05:38:27;;;;;;;12.82;6.38;;;;;;;;;;5540390;26;19994;-48
2024/04/26 05:40:53;;;;;;;12.50;6.80;;;;;;;;;;5540794;26;20009;-50
2024/04/26 05:43:20;;;;;;;14.73;7.35;;;;;;;;;;5540054;26;19985;-45
2024/04/26 05:45:47;;;;;;;17.02;6.75;;;;;;;;;;5540166;26;19988;-46
2024/04/26 05:48:13;;;;;;;18.40;6.97;;;;;;;;;;5539920;26;19986;-51
2024/04/26 05:50:40;;;;;;;16.45;7.28;;;;;;;;;;5540040;26;20107;-51
2024/04/26 05:53:09;;;;;;;16.33;7.10;;;;;;;;;;5539955;26;20004;-52
2024/04/26 05:55:36;;;;;;;15.90;8.15;;;;;;;;;;5540395;26;19992;-46
2024/04/26 05:58:03;;;;;;;19.90;8.00;;;;;;;;;;5540107;26;19986;-46
2024/04/26 06:00:30;;;;;;;20.27;8.40;;;;;;;;;;5540221;26;20045;-47
2024/04/26 06:02:57;;;;;;;18.50;8.02;;;;;;;;;;5539915;26;19996;-50
2024/04/26 06:05:24;;;;;;;17.77;8.13;;;;;;;;;;5539324;26;19992;-49
2024/04/26 06:07:51;;;;;;;19.58;7.88;;;;;;;;;;5540210;26;20282;-46
2024/04/26 06:10:17;;;;;;;19.55;8.63;;;;;;;;;;5539937;26;20072;-48
2024/04/26 06:12:46;;;;;;;18.30;8.40;;;;;;;;;;5539627;26;20131;-53
2024/04/26 06:15:13;;;;;;;22.00;9.55;;;;;;;;;;5539857;26;19985;-54
2024/04/26 06:17:39;;;;;;;25.95;10.68;;;;;;;;;;5539527;26;20060;-47
2024/04/26 06:20:06;;;;;;;24.38;10.48;;;;;;;;;;5539582;26;19985;-46
2024/04/26 06:22:32;;;;;;;27.70;10.85;;;;;;;;;;5539741;26;20191;-47
2024/04/26 06:24:59;;;;;;;24.25;11.00;;;;;;;;;;5539283;26;20194;-46
2024/04/26 06:27:26;;;;;;;19.55;10.20;;;;;;;;;;5539678;26;20118;-49
2024/04/26 06:29:52;;;;;;;25.92;9.38;;;;;;;;;;5539246;26;20010;-48
2024/04/26 06:32:19;;;;;;;24.63;10.15;;;;;;;;;;5539491;26;20046;-49
2024/04/26 06:34:45;;;;;;;22.63;9.45;;;;;;;;;;5543522;26;20007;-49
2024/04/26 06:37:12;;;;;;;21.23;9.80;;;;;;;;;;5543118;26;19985;-47
2024/04/26 06:39:39;;;;;;;19.70;9.05;;;;;;;;;;5542911;26;20079;-48
2024/04/26 06:42:05;;;;;;;18.35;9.32;;;;;;;;;;5543418;26;19986;-48
2024/04/26 06:44:32;;;;;;;16.73;9.10;;;;;;;;;;5542405;26;19981;-51
2024/04/26 06:46:58;;;;;;;18.88;9.05;;;;;;;;;;5542586;26;19989;-51
2024/04/26 06:49:25;;;;;;;21.67;9.43;;;;;;;;;;5542730;26;20012;-46
2024/04/26 06:51:52;;;;;;;20.80;9.98;;;;;;;;;;5542782;26;20000;-52
2024/04/26 06:54:18;;;;;;;19.38;9.77;;;;;;;;;;5542639;26;19996;-53
2024/04/26 06:56:45;;;;;;;16.25;9.38;;;;;;;;;;5542419;26;19989;-45
2024/04/26 06:59:11;;;;;;;18.98;10.50;;;;;;;;;;5542315;26;20011;-49
2024/04/26 07:01:40;;;;;;;21.15;9.48;;;;;;;;;;5542512;26;20023;-47
2024/04/26 07:04:06;;;;;;;19.05;9.80;;;;;;;;;;5542753;26;19992;-48
2024/04/26 07:06:34;;;;;;;18.23;8.90;;;;;;;;;;5542140;26;20082;-44
2024/04/26 07:09:00;;;;;;;20.92;9.23;;;;;;;;;;5542234;26;19997;-48
2024/04/26 07:11:27;;;;;;;19.30;9.85;;;;;;;;;;5542346;26;20009;-46
2024/04/26 07:13:54;;;;;;;21.75;9.10;;;;;;;;;;5541990;26;19996;-45
2024/04/26 07:16:21;;;;;;;21.80;9.63;;;;;;;;;;5542374;26;19997;-48
2024/04/26 07:18:47;;;;;;;19.42;8.90;;;;;;;;;;5542479;26;19985;-50
2024/04/26 07:21:14;;;;;;;20.75;9.60;;;;;;;;;;5541860;26;19996;-48
2024/04/26 07:23:41;;;;;;;16.45;8.77;;;;;;;;;;5542894;26;19988;-57
2024/04/26 07:26:07;;;;;;;20.70;10.45;;;;;;;;;;5542257;26;19998;-47
2024/04/26 07:28:34;;;;;;;19.50;9.48;;;;;;;;;;5541912;26;19992;-45
2024/04/26 07:31:01;;;;;;;23.83;9.40;;;;;;;;;;5541919;26;19989;-53
2024/04/26 07:33:29;;;;;;;18.73;9.13;;;;;;;;;;5541917;26;20187;-52
2024/04/26 07:35:55;;;;;;;20.23;9.63;;;;;;;;;;5541883;26;19997;-52
2024/04/26 07:38:22;;;;;;;21.23;9.52;;;;;;;;;;5542013;26;20041;-46
2024/04/26 07:40:48;;;;;;;20.55;10.00;;;;;;;;;;5541628;26;19997;-49
2024/04/26 07:43:16;;;;;;;21.27;9.70;;;;;;;;;;5542289;26;19982;-45
2024/04/26 07:45:43;;;;;;;22.15;9.20;;;;;;;;;;5509369;26;20001;-46
2024/04/26 07:48:10;;;;;;;22.08;8.75;;;;;;;;;;5542390;26;19993;-50
2024/04/26 07:50:37;;;;;;;23.13;8.98;;;;;;;;;;5541740;26;19989;-46
2024/04/26 07:53:04;;;;;;;18.35;9.68;;;;;;;;;;5541965;26;19993;-48
2024/04/26 07:55:30;;;;;;;20.35;9.65;;;;;;;;;;5541559;26;19981;-51
2024/04/26 07:57:57;;;;;;;21.05;9.00;;;;;;;;;;5542452;26;19985;-46
2024/04/26 08:00:24;;;;;;;18.23;8.95;;;;;;;;;;5541504;26;19990;-52
2024/04/26 08:02:50;;;;;;;23.55;8.90;;;;;;;;;;5541547;26;19997;-52
2024/04/26 08:05:17;;;;;;;16.77;9.27;;;;;;;;;;5541371;26;19990;-46
2024/04/26 08:07:43;;;;;;;19.65;9.82;;;;;;;;;;5541284;26;20047;-45
2024/04/26 08:10:10;;;;;;;20.50;9.85;;;;;;;;;;5541346;26;19988;-46
2024/04/26 08:12:36;;;;;;;20.08;9.80;;;;;;;;;;5541500;26;20076;-47
2024/04/26 08:15:03;;;;;;;18.23;8.70;;;;;;;;;;5541625;26;20038;-49
2024/04/26 08:17:30;;;;;;;22.92;9.48;;;;;;;;;;5541933;26;20048;-46
2024/04/26 08:19:56;;;;;;;23.30;9.82;;;;;;;;;;5541980;26;19986;-46
2024/04/26 08:22:23;;;;;;;22.52;9.73;;;;;;;;;;5541581;26;20001;-45
2024/04/26 08:24:49;;;;;;;20.60;9.60;;;;;;;;;;5541845;26;20014;-49
2024/04/26 08:27:16;;;;;;;18.10;9.80;;;;;;;;;;5541794;26;19993;-46
2024/04/26 08:29:43;;;;;;;21.50;9.70;;;;;;;;;;5540808;26;19993;-45
2024/04/26 08:32:09;;;;;;;17.92;9.95;;;;;;;;;;5541240;26;20050;-53
2024/04/26 08:34:36;;;;;;;21.40;10.20;;;;;;;;;;5541363;26;19977;-44
2024/04/26 08:37:03;;;;;;;17.85;10.05;;;;;;;;;;5541195;26;19986;-52
2024/04/26 08:39:30;;;;;;;22.55;10.32;;;;;;;;;;5540761;26;19981;-45
2024/04/26 08:41:58;;;;;;;20.98;10.35;;;;;;;;;;5541406;26;19990;-54
2024/04/26 08:44:25;;;;;;;19.92;9.38;;;;;;;;;;5538527;26;20038;-45
2024/04/26 08:46:53;;;;;;;23.40;9.80;;;;;;;;;;5513753;26;19985;-44
2024/04/26 08:49:21;;;;;;;20.33;9.77;;;;;;;;;;5540850;26;19989;-48
2024/04/26 08:51:51;;;;;;;16.38;9.18;;;;;;;;;;5540796;26;20166;-49
2024/04/26 08:54:18;;;;;;;19.58;9.48;;;;;;;;;;5541228;26;20201;-45
2024/04/26 08:56:46;;;;;;;20.08;9.05;;;;;;;;;;5539295;26;19989;-44
2024/04/26 08:59:14;;;;;;;18.65;9.48;;;;;;;;;;5540699;26;19986;-46
2024/04/26 09:01:41;;;;;;;21.50;9.50;;;;;;;;;;5541376;26;19996;-45
2024/04/26 09:04:08;;;;;;;19.73;8.95;;;;;;;;;;5540756;26;20029;-45
2024/04/26 09:06:35;;;;;;;21.08;9.73;;;;;;;;;;5540720;26;19996;-47
2024/04/26 09:09:02;;;;;;;19.85;8.30;;;;;;;;;;5540632;26;19989;-46
2024/04/26 09:11:30;;;;;;;21.50;8.85;;;;;;;;;;5541302;26;19990;-50
2024/04/26 09:13:57;;;;;;;20.15;9.35;;;;;;;;;;5540257;26;20254;-48
2024/04/26 09:16:24;;;;;;;19.17;9.55;;;;;;;;;;5540492;26;19986;-47
2024/04/26 09:18:50;;;;;;;20.20;8.45;;;;;;;;;;5540945;26;19984;-47
2024/04/26 09:21:17;;;;;;;23.08;9.57;;;;;;;;;;5540832;26;20082;-46
2024/04/26 09:23:44;;;;;;;17.45;8.80;;;;;;;;;;5540425;26;19985;-45
2024/04/26 09:26:10;;;;;;;18.63;9.23;;;;;;;;;;5540858;26;19995;-49
2024/04/26 09:28:37;;;;;;;18.83;9.15;;;;;;;;;;5540280;26;19985;-45
2024/04/26 09:31:04;;;;;;;21.63;8.93;;;;;;;;;;5540102;26;19985;-45
2024/04/26 09:33:31;;;;;;;17.08;9.07;;;;;;;;;;5540399;26;19981;-45
2024/04/26 09:35:58;;;;;;;20.20;9.18;;;;;;;;;;5539973;26;20220;-54
2024/04/26 09:38:26;;;;;;;20.48;9.05;;;;;;;;;;5540396;26;19982;-47
2024/04/26 09:40:54;;;;;;;18.17;9.02;;;;;;;;;;5540183;26;19996;-52
2024/04/26 09:43:20;;;;;;;14.88;8.48;;;;;;;;;;5540354;26;19981;-46
2024/04/26 09:45:49;;;;;;;16.67;8.90;;;;;;;;;;5540079;26;19993;-45
2024/04/26 09:48:16;;;;;;;17.75;8.55;;;;;;;;;;5539856;26;19994;-47
2024/04/26 09:50:42;;;;;;;16.92;9.23;;;;;;;;;;5539680;26;19994;-45
2024/04/26 09:53:09;;;;;;;20.67;9.07;;;;;;;;;;5539809;26;19993;-46
2024/04/26 09:55:36;;;;;;;20.15;9.45;;;;;;;;;;5539704;26;19998;-46
2024/04/26 09:58:02;;;;;;;18.33;9.70;;;;;;;;;;5532223;26;20004;-49
2024/04/26 10:00:29;;;;;;;20.60;8.73;;;;;;;;;;5539753;26;20001;-45
2024/04/26 10:03:00;;;;;;;27.45;9.68;;;;;;;;;;5539743;26;19989;-51
2024/04/26 10:05:27;;;;;;;19.08;9.00;;;;;;;;;;5539264;26;20210;-47
2024/04/26 10:08:00;;;;;;;23.02;9.50;;;;;;;;;;5540369;26;19985;-47
2024/04/26 10:10:35;;;;;;;22.58;9.48;;;;;;;;;;5543017;26;19981;-49
2024/04/26 10:13:05;;;;;;;22.98;9.55;;;;;;;;;;5543996;26;19985;-46
2024/04/26 10:15:34;;;;;;;20.40;9.38;;;;;;;;;;5543192;26;19989;-45
2024/04/26 10:18:01;;;;;;;22.25;9.55;;;;;;;;;;5543324;26;19986;-47
2024/04/26 10:20:27;;;;;;;19.55;9.57;;;;;;;;;;5543060;26;20037;-48
2024/04/26 10:23:04;;;;;;;21.10;10.00;;;;;;;;;;5543562;26;19989;-52
2024/04/26 10:25:31;;;;;;;16.35;8.95;;;;;;;;;;5542789;26;19985;-46
2024/04/26 10:28:11;;;;;;;19.63;8.40;;;;;;;;;;5543464;26;20210;-50
2024/04/26 10:30:45;;;;;;;21.00;9.18;;;;;;;;;;5541807;26;20189;-51
2024/04/26 10:33:12;;;;;;;20.98;8.70;;;;;;;;;;5543182;26;19985;-48
2024/04/26 10:35:39;;;;;;;17.27;9.15;;;;;;;;;;5543287;26;19989;-46
2024/04/26 10:38:08;;;;;;;21.33;9.57;;;;;;;;;;5543641;26;19993;-45
2024/04/26 10:40:47;;;;;;;25.75;10.05;;;;;;;;;;5542494;25;20090;-49
2024/04/26 10:43:23;;;;;;;21.50;9.27;;;;;;;;;;5543293;26;19992;-45
2024/04/26 10:45:54;;;;;;;22.55;10.25;;;;;;;;;;5542768;26;19995;-45
2024/04/26 10:48:21;;;;;;;20.55;9.57;;;;;;;;;;5542857;26;19993;-51
2024/04/26 10:50:48;;;;;;;21.15;9.70;;;;;;;;;;5542477;26;19989;-52
2024/04/26 10:53:14;;;;;;;23.98;10.27;;;;;;;;;;5542865;26;20041;-53
2024/04/26 10:55:42;;;;;;;16.75;9.25;;;;;;;;;;5542896;26;19990;-46
2024/04/26 10:58:10;;;;;;;16.65;9.60;;;;;;;;;;5542684;26;19992;-53
2024/04/26 11:00:37;;;;;;;23.38;9.88;;;;;;;;;;5544623;25;20017;-46
2024/04/26 11:03:08;;;;;;;18.77;9.30;;;;;;;;;;5547708;25;20017;-47
2024/04/26 11:05:45;;;;;;;23.13;10.23;;;;;;;;;;5542078;25;19982;-53
2024/04/26 11:08:11;;;;;;;25.40;10.13;;;;;;;;;;5552692;25;19994;-44
2024/04/26 11:10:39;;;;;;;20.00;9.32;;;;;;;;;;5526458;26;20009;-46
2024/04/26 11:13:05;;;;;;;22.00;10.35;;;;;;;;;;5541559;26;19993;-45
2024/04/26 11:15:32;;;;;;;21.38;10.35;;;;;;;;;;5544659;25;20198;-52
2024/04/26 11:17:59;;;;;;;24.20;11.23;;;;;;;;;;5552747;25;19992;-47
2024/04/26 11:20:25;;;;;;;20.40;10.07;;;;;;;;;;5557089;25;20037;-52
2024/04/26 11:22:52;;;;;;;19.90;10.50;;;;;;;;;;5543719;25;19993;-48
2024/04/26 11:25:18;;;;;;;23.80;10.50;;;;;;;;;;5544818;25;20243;-46
2024/04/26 11:27:45;;;;;;;22.98;10.38;;;;;;;;;;5541016;26;20000;-49
2024/04/26 11:30:12;;;;;;;26.42;10.35;;;;;;;;;;5541160;26;19989;-47
2024/04/26 11:32:38;;;;;;;18.98;9.88;;;;;;;;;;5541481;26;19990;-46
2024/04/26 11:35:06;;;;;;;23.63;10.75;;;;;;;;;;5538181;25;19998;-45
2024/04/26 11:37:33;;;;;;;18.63;10.02;;;;;;;;;;5542846;25;19990;-41
2024/04/26 11:39:59;;;;;;;21.92;9.85;;;;;;;;;;5542258;26;19996;-50
2024/04/26 11:42:27;;;;;;;23.95;11.40;;;;;;;;;;5542388;26;19985;-47
2024/04/26 11:44:54;;;;;;;18.42;10.35;;;;;;;;;;5538761;26;20000;-44
2024/04/26 11:47:21;;;;;;;20.20;10.65;;;;;;;;;;5542698;26;20022;-45
2024/04/26 11:49:49;;;;;;;18.85;10.00;;;;;;;;;;5541829;26;20038;-42
2024/04/26 11:52:15;;;;;;;25.48;11.45;;;;;;;;;;5541672;26;20001;-48
2024/04/26 11:54:42;;;;;;;22.55;11.10;;;;;;;;;;5538894;26;19992;-44
2024/04/26 11:57:08;;;;;;;22.90;11.52;;;;;;;;;;5538575;26;19981;-41
2024/04/26 11:59:35;;;;;;;22.48;12.18;;;;;;;;;;5538576;26;19997;-45
2024/04/26 12:02:02;;;;;;;22.85;12.30;;;;;;;;;;5538460;26;20005;-42
2024/04/26 12:04:28;;;;;;;33.55;12.43;;;;;;;;;;5539053;26;19985;-45
2024/04/26 12:06:55;;;;;;;53.03;14.15;;;;;;;;;;5539501;26;19989;-40
2024/04/26 12:09:21;;;;;;;69.38;16.63;;;;;;;;;;5541252;26;19993;-45
2024/04/26 12:11:48;;;;;;;114.38;21.58;;;;;;;;;;5541694;26;20037;-49
2024/04/26 12:14:15;;;;;;;118.60;22.48;;;;;;;;;;5541804;26;20086;-51
2024/04/26 12:16:48;;;;;;;138.38;23.48;;;;;;;;;;5541630;26;20413;-44
2024/04/26 12:19:14;;;;;;;141.68;24.50;;;;;;;;;;5541292;26;19989;-41
2024/04/26 12:21:42;;;;;;;126.70;23.10;;;;;;;;;;5541579;26;20058;-51
2024/04/26 12:24:08;;;;;;;119.68;20.88;;;;;;;;;;5541619;26;19986;-43
2024/04/26 12:26:35;;;;;;;96.10;19.17;;;;;;;;;;5541149;26;19981;-44
2024/04/26 12:29:02;;;;;;;86.43;16.77;;;;;;;;;;5541560;26;20041;-51
2024/04/26 12:31:30;;;;;;;108.78;17.95;;;;;;;;;;5541116;26;20013;-48
2024/04/26 12:33:57;;;;;;;100.57;18.92;;;;;;;;;;5541320;26;19981;-41
2024/04/26 12:36:23;;;;;;;81.70;16.02;;;;;;;;;;5541338;26;19990;-44
2024/04/26 12:38:50;;;;;;;87.03;16.27;;;;;;;;;;5541270;26;19982;-41
2024/04/26 12:41:17;;;;;;;94.40;18.27;;;;;;;;;;5541242;26;19989;-49
2024/04/26 12:43:43;;;;;;;90.35;16.75;;;;;;;;;;5541548;26;20162;-42
2024/04/26 12:46:16;;;;;;;77.38;17.33;;;;;;;;;;5541242;26;19986;-48
2024/04/26 12:48:45;;;;;;;78.28;15.10;;;;;;;;;;5540935;26;20010;-45
2024/04/26 12:51:11;;;;;;;77.43;15.73;;;;;;;;;;5541470;26;20001;-46
2024/04/26 12:53:38;;;;;;;73.57;14.80;;;;;;;;;;5541826;26;19989;-43
2024/04/26 12:56:04;;;;;;;73.55;14.50;;;;;;;;;;5540831;26;20198;-45
2024/04/26 12:58:34;;;;;;;57.80;13.75;;;;;;;;;;5541353;26;19985;-43
2024/04/26 13:01:01;;;;;;;69.85;13.98;;;;;;;;;;5541513;26;19990;-43
2024/04/26 13:03:27;;;;;;;59.10;13.80;;;;;;;;;;5541252;26;20017;-47
2024/04/26 13:05:54;;;;;;;64.60;14.35;;;;;;;;;;5541761;26;19989;-46
2024/04/26 13:08:21;;;;;;;39.55;12.20;;;;;;;;;;5541064;26;20038;-45
2024/04/26 13:10:49;;;;;;;52.08;13.38;;;;;;;;;;5541322;26;19985;-45
2024/04/26 13:13:16;;;;;;;34.47;12.90;;;;;;;;;;5541168;26;19985;-46
2024/04/26 13:15:42;;;;;;;33.17;13.43;;;;;;;;;;5540815;26;20018;-48
2024/04/26 13:18:09;;;;;;;36.30;15.18;;;;;;;;;;5541070;26;19993;-41
2024/04/26 13:20:35;;;;;;;30.08;15.18;;;;;;;;;;5540825;26;19992;-44
2024/04/26 13:23:05;;;;;;;31.15;15.65;;;;;;;;;;5540833;26;20033;-44
2024/04/26 13:25:32;;;;;;;32.85;15.45;;;;;;;;;;5540534;26;20037;-41
2024/04/26 13:27:59;;;;;;;28.67;14.98;;;;;;;;;;5540487;26;20223;-42
2024/04/26 13:30:27;;;;;;;32.63;15.23;;;;;;;;;;5540913;26;19989;-44
2024/04/26 13:32:53;;;;;;;28.23;15.45;;;;;;;;;;5541076;26;19977;-43
2024/04/26 13:35:20;;;;;;;36.83;15.63;;;;;;;;;;5540571;26;19990;-43
2024/04/26 13:37:50;;;;;;;38.38;16.05;;;;;;;;;;5541001;26;19986;-43
2024/04/26 13:40:17;;;;;;;28.25;14.05;;;;;;;;;;5540169;26;19990;-41
2024/04/26 13:42:43;;;;;;;30.98;13.50;;;;;;;;;;5539963;26;19992;-43
2024/04/26 13:45:11;;;;;;;28.05;12.35;;;;;;;;;;5540225;26;19989;-43
2024/04/26 13:47:39;;;;;;;26.50;12.25;;;;;;;;;;5540094;26;20187;-49
2024/04/26 13:50:07;;;;;;;27.15;12.15;;;;;;;;;;5539998;26;19985;-45
2024/04/26 13:52:34;;;;;;;18.48;10.82;;;;;;;;;;5540746;26;20041;-42
2024/04/26 13:55:01;;;;;;;19.48;10.20;;;;;;;;;;5540439;26;20002;-46
2024/04/26 13:57:27;;;;;;;19.00;10.13;;;;;;;;;;5540828;26;20041;-44
2024/04/26 13:59:54;;;;;;;23.67;12.25;;;;;;;;;;5540620;26;19990;-43
2024/04/26 14:02:24;;;;;;;23.58;12.80;;;;;;;;;;5540127;26;19985;-46
2024/04/26 14:04:52;;;;;;;25.63;11.35;;;;;;;;;;5539856;26;20049;-42
2024/04/26 14:07:18;;;;;;;25.10;12.10;;;;;;;;;;5540035;26;20150;-52
2024/04/26 14:09:46;;;;;;;26.73;12.38;;;;;;;;;;5539883;26;19986;-42
2024/04/26 14:12:13;;;;;;;23.25;11.07;;;;;;;;;;5540104;26;19981;-43
2024/04/26 14:14:40;;;;;;;21.17;9.48;;;;;;;;;;5539829;26;19991;-43
2024/04/26 14:17:06;;;;;;;18.60;9.65;;;;;;;;;;5540004;26;19993;-45
2024/04/26 14:19:36;;;;;;;19.70;9.02;;;;;;;;;;5540178;26;20000;-53
2024/04/26 14:22:03;;;;;;;17.23;9.27;;;;;;;;;;5540462;26;19985;-53
2024/04/26 14:24:30;;;;;;;18.27;9.40;;;;;;;;;;5540244;26;19985;-52
2024/04/26 14:26:57;;;;;;;21.17;9.38;;;;;;;;;;5540245;26;19989;-52